Terminal Aerodrome Forecast
Issued by NWS

Home | Current Version | Previous Version | Text Only | Print | Product List | Glossary On
Versions: 1 2 3 4 5 6 7 8 9 10 11 12 13 14 15 16 17 18 19
000
FTUS41 KGYX 231120
TAFMHT
TAF
KMHT 231120Z 2312/2412 32006KT P6SM FEW050
     FM231500 30010G18KT P6SM SCT050
     FM240000 32005KT P6SM BKN200=

USA.gov is the U.S. government's official web portal to all federal, state and local government web resources and services.